Canalechevarria — EA2510 — position and weather

sailwx.info

Track history (hours):
 
Tides and Currents Weather Stations Pressure Air Temp Water Temp Dewpoint Dewpoint Depression Visibility Wind Speed Wind Dir Waves Ship Positions

Canalechevarria

Last reported at 2018-May-24 09:00 UTC. Time now 2018-May-24 14:08 UTC.
Position N 43°25' W 002°43'.

Length 26 m.

Type: Fishing. MMSI: 224218930.

Date/timePositionNaut miles runAvg speedWind from/ knotsBaromVisibWave heightAir tempDewpointWater temp
2018-May-24 09:00N 43°25' W 002°43'0 0.0
2018-May-24 08:31N 43°25' W 002°43'0 0.0
2018-May-24 08:00N 43°25' W 002°43'0 0.0
2018-May-24 07:30N 43°25' W 002°43'0 0.0
2018-May-24 07:01N 43°25' W 002°43'0 0.0
2018-May-24 06:31N 43°25' W 002°43'0 0.0
2018-May-24 06:01N 43°25' W 002°43'0 0.0
2018-May-24 05:31N 43°25' W 002°43'0 0.0
2018-May-23 12:26N 43°25' W 002°43'0 0.0
2018-May-23 12:01N 43°25' W 002°43'1 1.7
2018-May-23 11:31N 43°26' W 002°42'1 1.8
2018-May-23 11:01N 43°25' W 002°43'0 0.2
2018-May-23 10:30N 43°25' W 002°43'0 0.0
2018-May-23 10:00N 43°25' W 002°43'3 6.2
2018-May-23 09:31N 43°26' W 002°39'4 9.0
2018-May-23 09:00N 43°24' W 002°33'4 9.0
2018-May-23 08:30N 43°22' W 002°28'3 1.4
2018-May-23 06:20N 43°20' W 002°25'0 0.1
2018-May-23 06:00N 43°20' W 002°25'0 0.0
2018-May-22 10:32N 43°20' W 002°25'0 0.0
2018-May-22 10:30N 43°20' W 002°25'0 0.0
2018-May-21 11:07N 43°20' W 002°25'0 0.0
2018-May-21 10:57N 43°20' W 002°25'0 0.0
2018-May-21 10:30N 43°20' W 002°25'0 0.0
2018-May-21 09:32N 43°20' W 002°25'0 0.0
2018-May-21 09:30N 43°20' W 002°25'0 0.0
2018-May-21 08:59N 43°20' W 002°25'0 0.1
2018-May-21 08:30N 43°20' W 002°25'0 0.1
2018-May-21 08:00N 43°20' W 002°25'0 0.1
2018-May-21 07:30N 43°20' W 002°25'3 6.2
2018-May-21 07:00N 43°22' W 002°28'4 8.2
2018-May-21 06:30N 43°24' W 002°33'4 8.0
2018-May-21 06:00N 43°25' W 002°38'3 7.0
2018-May-21 05:30N 43°25' W 002°42'1 1.2
2018-May-21 05:00N 43°25' W 002°43'0 0.0
2018-May-20 08:42N 43°25' W 002°43'0 0.0
2018-May-20 08:30N 43°25' W 002°43'0 0.0
2018-May-20 08:01N 43°25' W 002°43'0 0.0
2018-May-18 09:42N 43°25' W 002°43'0 0.0
2018-May-18 09:30N 43°25' W 002°43'0 0.0
2018-May-18 09:00N 43°25' W 002°43'0 0.0
2018-May-18 08:30N 43°25' W 002°43'0 0.0
2018-May-18 08:00N 43°25' W 002°43'0 0.0
2018-May-18 07:30N 43°25' W 002°43'0 0.0
2018-May-18 07:00N 43°25' W 002°43'0 0.0
2018-May-18 06:30N 43°25' W 002°43'0 0.0
2018-May-17 09:47N 43°25' W 002°43'0 0.0
2018-May-17 09:30N 43°25' W 002°43'0 0.0
2018-May-17 09:00N 43°25' W 002°43'0 0.0
2018-May-17 08:30N 43°25' W 002°43'0 0.0
2018-May-17 08:00N 43°25' W 002°43'0 0.0
2018-May-17 07:30N 43°25' W 002°43'0 0.0
2018-May-17 07:00N 43°25' W 002°43'0 0.0
2018-May-17 06:30N 43°25' W 002°43'0 0.0
2018-May-17 06:00N 43°25' W 002°43'0 0.0
2018-May-16 16:32N 43°25' W 002°43'0 0.0
2018-May-16 16:29N 43°25' W 002°43'0 0.0
2018-May-16 15:37N 43°25' W 002°43'0 0.0
2018-May-16 15:31N 43°25' W 002°43'0 0.0
2018-May-16 15:00N 43°25' W 002°43'0 0.0
2018-May-16 14:30N 43°25' W 002°43'0 0.0
2018-May-16 14:00N 43°25' W 002°43'0 0.0
2018-May-16 13:31N 43°25' W 002°43'0 0.0
2018-May-16 13:00N 43°25' W 002°43'0 0.0
2018-May-16 12:31N 43°25' W 002°43'0 0.0
2018-May-16 12:00N 43°25' W 002°43'0 0.0
2018-May-16 11:30N 43°25' W 002°43'0 0.0
2018-May-16 11:01N 43°25' W 002°43'0 0.0
2018-May-16 10:31N 43°25' W 002°43'0 0.0
2018-May-16 10:01N 43°25' W 002°43'0 0.0
2018-May-16 09:31N 43°25' W 002°43'0 0.0
2018-May-16 09:00N 43°25' W 002°43'0 0.0
2018-May-16 08:30N 43°25' W 002°43'0 0.0
2018-May-16 08:01N 43°25' W 002°43'0 0.0
2018-May-16 07:00N 43°25' W 002°43'0 0.0
2018-May-16 06:30N 43°25' W 002°43'0 0.0
2018-May-15 09:08N 43°25' W 002°43'0 0.0
2018-May-15 09:00N 43°25' W 002°43'0 0.0
2018-May-15 08:30N 43°25' W 002°43'0 0.0
2018-May-15 08:00N 43°25' W 002°43'0 0.0
2018-May-15 07:30N 43°25' W 002°43'0 0.0
2018-May-15 07:00N 43°25' W 002°43'0 0.0
2018-May-15 06:30N 43°25' W 002°43'0 0.0
2018-May-14 10:08N 43°25' W 002°43'0 0.1
2018-May-14 10:00N 43°25' W 002°43'0 0.0
2018-May-14 09:30N 43°25' W 002°43'0 0.0
2018-May-14 09:00N 43°25' W 002°43'  
Track history (hours):
 
Tides and Currents Weather Stations Pressure Air Temp Water Temp Dewpoint Dewpoint Depression Visibility Wind Speed Wind Dir Waves Ship Positions

Canalechevarria

Last reported at 2018-May-24 09:00 UTC. Time now 2018-May-24 14:08 UTC.
Position N 43°25' W 002°43'.

Length 26 m.

Type: Fishing. MMSI: 224218930.

Date/timePositionNaut miles runAvg speedWind from/ knotsBaromVisibWave heightAir tempDewpointWater temp
2018-May-24 09:00N 43°25' W 002°43'0 0.0
2018-May-24 08:31N 43°25' W 002°43'0 0.0
2018-May-24 08:00N 43°25' W 002°43'0 0.0
2018-May-24 07:30N 43°25' W 002°43'0 0.0
2018-May-24 07:01N 43°25' W 002°43'0 0.0
2018-May-24 06:31N 43°25' W 002°43'0 0.0
2018-May-24 06:01N 43°25' W 002°43'0 0.0
2018-May-24 05:31N 43°25' W 002°43'0 0.0
2018-May-23 12:26N 43°25' W 002°43'0 0.0
2018-May-23 12:01N 43°25' W 002°43'1 1.7
2018-May-23 11:31N 43°26' W 002°42'1 1.8
2018-May-23 11:01N 43°25' W 002°43'0 0.2
2018-May-23 10:30N 43°25' W 002°43'0 0.0
2018-May-23 10:00N 43°25' W 002°43'3 6.2
2018-May-23 09:31N 43°26' W 002°39'4 9.0
2018-May-23 09:00N 43°24' W 002°33'4 9.0
2018-May-23 08:30N 43°22' W 002°28'3 1.4
2018-May-23 06:20N 43°20' W 002°25'0 0.1
2018-May-23 06:00N 43°20' W 002°25'0 0.0
2018-May-22 10:32N 43°20' W 002°25'0 0.0
2018-May-22 10:30N 43°20' W 002°25'0 0.0
2018-May-21 11:07N 43°20' W 002°25'0 0.0
2018-May-21 10:57N 43°20' W 002°25'0 0.0
2018-May-21 10:30N 43°20' W 002°25'0 0.0
2018-May-21 09:32N 43°20' W 002°25'0 0.0
2018-May-21 09:30N 43°20' W 002°25'0 0.0
2018-May-21 08:59N 43°20' W 002°25'0 0.1
2018-May-21 08:30N 43°20' W 002°25'0 0.1
2018-May-21 08:00N 43°20' W 002°25'0 0.1
2018-May-21 07:30N 43°20' W 002°25'3 6.2
2018-May-21 07:00N 43°22' W 002°28'4 8.2
2018-May-21 06:30N 43°24' W 002°33'4 8.0
2018-May-21 06:00N 43°25' W 002°38'3 7.0
2018-May-21 05:30N 43°25' W 002°42'1 1.2
2018-May-21 05:00N 43°25' W 002°43'0 0.0
2018-May-20 08:42N 43°25' W 002°43'0 0.0
2018-May-20 08:30N 43°25' W 002°43'0 0.0
2018-May-20 08:01N 43°25' W 002°43'0 0.0
2018-May-18 09:42N 43°25' W 002°43'0 0.0
2018-May-18 09:30N 43°25' W 002°43'0 0.0
2018-May-18 09:00N 43°25' W 002°43'0 0.0
2018-May-18 08:30N 43°25' W 002°43'0 0.0
2018-May-18 08:00N 43°25' W 002°43'0 0.0
2018-May-18 07:30N 43°25' W 002°43'0 0.0
2018-May-18 07:00N 43°25' W 002°43'0 0.0
2018-May-18 06:30N 43°25' W 002°43'0 0.0
2018-May-17 09:47N 43°25' W 002°43'0 0.0
2018-May-17 09:30N 43°25' W 002°43'0 0.0
2018-May-17 09:00N 43°25' W 002°43'0 0.0
2018-May-17 08:30N 43°25' W 002°43'0 0.0
2018-May-17 08:00N 43°25' W 002°43'0 0.0
2018-May-17 07:30N 43°25' W 002°43'0 0.0
2018-May-17 07:00N 43°25' W 002°43'0 0.0
2018-May-17 06:30N 43°25' W 002°43'0 0.0
2018-May-17 06:00N 43°25' W 002°43'0 0.0
2018-May-16 16:32N 43°25' W 002°43'0 0.0
2018-May-16 16:29N 43°25' W 002°43'0 0.0
2018-May-16 15:37N 43°25' W 002°43'0 0.0
2018-May-16 15:31N 43°25' W 002°43'0 0.0
2018-May-16 15:00N 43°25' W 002°43'0 0.0
2018-May-16 14:30N 43°25' W 002°43'0 0.0
2018-May-16 14:00N 43°25' W 002°43'0 0.0
2018-May-16 13:31N 43°25' W 002°43'0 0.0
2018-May-16 13:00N 43°25' W 002°43'0 0.0
2018-May-16 12:31N 43°25' W 002°43'0 0.0
2018-May-16 12:00N 43°25' W 002°43'0 0.0
2018-May-16 11:30N 43°25' W 002°43'0 0.0
2018-May-16 11:01N 43°25' W 002°43'0 0.0
2018-May-16 10:31N 43°25' W 002°43'0 0.0
2018-May-16 10:01N 43°25' W 002°43'0 0.0
2018-May-16 09:31N 43°25' W 002°43'0 0.0
2018-May-16 09:00N 43°25' W 002°43'0 0.0
2018-May-16 08:30N 43°25' W 002°43'0 0.0
2018-May-16 08:01N 43°25' W 002°43'0 0.0
2018-May-16 07:00N 43°25' W 002°43'0 0.0
2018-May-16 06:30N 43°25' W 002°43'0 0.0
2018-May-15 09:08N 43°25' W 002°43'0 0.0
2018-May-15 09:00N 43°25' W 002°43'0 0.0
2018-May-15 08:30N 43°25' W 002°43'0 0.0
2018-May-15 08:00N 43°25' W 002°43'0 0.0
2018-May-15 07:30N 43°25' W 002°43'0 0.0
2018-May-15 07:00N 43°25' W 002°43'0 0.0
2018-May-15 06:30N 43°25' W 002°43'0 0.0
2018-May-14 10:08N 43°25' W 002°43'0 0.1
2018-May-14 10:00N 43°25' W 002°43'0 0.0
2018-May-14 09:30N 43°25' W 002°43'0 0.0
2018-May-14 09:00N 43°25' W 002°43'  

Dump ship's entire track history